sensor_id;sensor_type;location;lat;lon;timestamp;pressure;altitude;pressure_sealevel;temperature;humidity
58739;BME280;44512;53.046;18.604;2024-01-30T00:02:36;103231.40;;;3.54;65.01
58739;BME280;44512;53.046;18.604;2024-01-30T00:13:04;103232.53;;;3.50;65.11
58739;BME280;44512;53.046;18.604;2024-01-30T00:23:33;103221.18;;;3.47;65.02
58739;BME280;44512;53.046;18.604;2024-01-30T00:34:01;103222.20;;;3.44;65.03
58739;BME280;44512;53.046;18.604;2024-01-30T00:44:30;103220.66;;;3.40;65.03
58739;BME280;44512;53.046;18.604;2024-01-30T00:54:59;103217.34;;;3.36;64.92
58739;BME280;44512;53.046;18.604;2024-01-30T01:05:26;103207.75;;;3.32;64.86
58739;BME280;44512;53.046;18.604;2024-01-30T01:15:55;103201.82;;;3.27;64.77
58739;BME280;44512;53.046;18.604;2024-01-30T01:26:23;103194.23;;;3.20;64.72
58739;BME280;44512;53.046;18.604;2024-01-30T01:36:52;103185.70;;;3.13;64.82
58739;BME280;44512;53.046;18.604;2024-01-30T01:47:20;103182.18;;;3.12;64.81
58739;BME280;44512;53.046;18.604;2024-01-30T01:57:49;103183.41;;;3.07;64.77
58739;BME280;44512;53.046;18.604;2024-01-30T02:08:17;103179.09;;;3.04;64.76
58739;BME280;44512;53.046;18.604;2024-01-30T02:18:46;103174.79;;;3.02;64.77
58739;BME280;44512;53.046;18.604;2024-01-30T02:29:15;103168.86;;;2.97;64.85
58739;BME280;44512;53.046;18.604;2024-01-30T02:39:43;103186.83;;;2.95;64.89
58739;BME280;44512;53.046;18.604;2024-01-30T02:50:11;103186.89;;;2.93;64.89
58739;BME280;44512;53.046;18.604;2024-01-30T03:00:40;103188.82;;;2.91;64.77
58739;BME280;44512;53.046;18.604;2024-01-30T03:11:08;103182.01;;;2.85;64.69
58739;BME280;44512;53.046;18.604;2024-01-30T03:21:37;103175.96;;;2.82;64.66
58739;BME280;44512;53.046;18.604;2024-01-30T03:32:05;103175.37;;;2.77;64.70
58739;BME280;44512;53.046;18.604;2024-01-30T03:42:34;103165.04;;;2.71;64.72
58739;BME280;44512;53.046;18.604;2024-01-30T03:53:02;103167.88;;;2.68;64.74
58739;BME280;44512;53.046;18.604;2024-01-30T04:03:31;103178.67;;;2.66;64.69
58739;BME280;44512;53.046;18.604;2024-01-30T04:13:59;103183.53;;;2.59;64.70
58739;BME280;44512;53.046;18.604;2024-01-30T04:24:28;103167.84;;;2.53;64.84
58739;BME280;44512;53.046;18.604;2024-01-30T04:34:57;103169.73;;;2.51;64.95
58739;BME280;44512;53.046;18.604;2024-01-30T04:45:25;103179.47;;;2.52;65.10
58739;BME280;44512;53.046;18.604;2024-01-30T04:55:53;103159.03;;;2.51;65.13
58739;BME280;44512;53.046;18.604;2024-01-30T05:06:26;103169.92;;;2.48;65.32
58739;BME280;44512;53.046;18.604;2024-01-30T05:16:50;103167.84;;;2.53;65.46
58739;BME280;44512;53.046;18.604;2024-01-30T05:27:19;103172.30;;;2.53;65.55
58739;BME280;44512;53.046;18.604;2024-01-30T05:37:48;103170.52;;;2.53;65.50
58739;BME280;44512;53.046;18.604;2024-01-30T05:48:16;103175.07;;;2.51;65.51
58739;BME280;44512;53.046;18.604;2024-01-30T05:58:45;103173.37;;;2.50;65.58
58739;BME280;44512;53.046;18.604;2024-01-30T06:09:13;103171.45;;;2.52;65.60
58739;BME280;44512;53.046;18.604;2024-01-30T06:19:42;103167.05;;;2.51;65.68
58739;BME280;44512;53.046;18.604;2024-01-30T06:30:11;103178.54;;;2.53;65.69
58739;BME280;44512;53.046;18.604;2024-01-30T06:40:39;103182.08;;;2.54;65.69
58739;BME280;44512;53.046;18.604;2024-01-30T06:51:07;103188.19;;;2.56;65.82
58739;BME280;44512;53.046;18.604;2024-01-30T07:01:35;103183.53;;;2.59;65.85
58739;BME280;44512;53.046;18.604;2024-01-30T07:12:04;103178.84;;;2.63;65.92
58739;BME280;44512;53.046;18.604;2024-01-30T07:22:33;103182.05;;;2.70;65.96
58739;BME280;44512;53.046;18.604;2024-01-30T07:33:01;103177.10;;;2.78;65.94
58739;BME280;44512;53.046;18.604;2024-01-30T07:43:29;103186.57;;;2.83;66.08
58739;BME280;44512;53.046;18.604;2024-01-30T07:53:58;103189.58;;;2.93;66.08
58739;BME280;44512;53.046;18.604;2024-01-30T08:04:27;103190.00;;;3.01;66.17
58739;BME280;44512;53.046;18.604;2024-01-30T08:14:55;103189.45;;;3.10;66.00
58739;BME280;44512;53.046;18.604;2024-01-30T08:25:23;103195.87;;;3.22;65.87
58739;BME280;44512;53.046;18.604;2024-01-30T08:35:52;103189.11;;;3.31;65.72
58739;BME280;44512;53.046;18.604;2024-01-30T08:46:20;103186.72;;;3.40;65.56
58739;BME280;44512;53.046;18.604;2024-01-30T08:56:49;103194.08;;;3.51;65.51
58739;BME280;44512;53.046;18.604;2024-01-30T09:07:17;103194.38;;;3.61;65.22
58739;BME280;44512;53.046;18.604;2024-01-30T09:17:46;103181.29;;;3.71;64.87
58739;BME280;44512;53.046;18.604;2024-01-30T09:28:14;103170.75;;;3.82;64.60
58739;BME280;44512;53.046;18.604;2024-01-30T09:38:42;103162.82;;;3.95;64.33
58739;BME280;44512;53.046;18.604;2024-01-30T09:49:11;103160.20;;;4.07;64.00
58739;BME280;44512;53.046;18.604;2024-01-30T09:59:41;103156.75;;;4.20;63.60
58739;BME280;44512;53.046;18.604;2024-01-30T10:10:08;103137.17;;;4.32;63.35
58739;BME280;44512;53.046;18.604;2024-01-30T10:20:36;103125.84;;;4.41;62.97
58739;BME280;44512;53.046;18.604;2024-01-30T10:31:05;103113.23;;;4.56;62.41
58739;BME280;44512;53.046;18.604;2024-01-30T10:41:39;103100.63;;;4.70;61.85
58739;BME280;44512;53.046;18.604;2024-01-30T10:52:03;103099.54;;;4.86;61.06
58739;BME280;44512;53.046;18.604;2024-01-30T11:02:30;103102.91;;;5.02;60.85
58739;BME280;44512;53.046;18.604;2024-01-30T11:12:58;103099.91;;;5.19;60.26
58739;BME280;44512;53.046;18.604;2024-01-30T11:23:28;103085.40;;;5.35;59.98
58739;BME280;44512;53.046;18.604;2024-01-30T11:33:56;103070.87;;;5.50;59.64
58739;BME280;44512;53.046;18.604;2024-01-30T11:49:23;103059.67;;;5.69;58.91
58739;BME280;44512;53.046;18.604;2024-01-30T11:59:52;103048.13;;;5.80;58.48
58739;BME280;44512;53.046;18.604;2024-01-30T12:10:20;103046.40;;;5.91;58.29
58739;BME280;44512;53.046;18.604;2024-01-30T12:21:01;103042.91;;;6.02;58.18
58739;BME280;44512;53.046;18.604;2024-01-30T12:31:17;103024.48;;;6.09;57.81
58739;BME280;44512;53.046;18.604;2024-01-30T12:41:45;103023.91;;;6.16;57.76
58739;BME280;44512;53.046;18.604;2024-01-30T12:52:16;103010.00;;;6.22;57.83
58739;BME280;44512;53.046;18.604;2024-01-30T13:02:43;103005.26;;;6.26;57.65
58739;BME280;44512;53.046;18.604;2024-01-30T13:13:11;102996.37;;;6.37;57.72
58739;BME280;44512;53.046;18.604;2024-01-30T13:23:39;102991.02;;;6.48;57.65
58739;BME280;44512;53.046;18.604;2024-01-30T13:34:08;102985.52;;;6.61;57.51
58739;BME280;44512;53.046;18.604;2024-01-30T13:44:36;102982.98;;;6.70;57.61
58739;BME280;44512;53.046;18.604;2024-01-30T13:55:04;102983.74;;;6.84;57.39
58739;BME280;44512;53.046;18.604;2024-01-30T14:05:33;102972.36;;;6.91;57.01
58739;BME280;44512;53.046;18.604;2024-01-30T14:16:01;102976.39;;;6.97;57.06
58739;BME280;44512;53.046;18.604;2024-01-30T14:26:30;102972.25;;;7.04;57.21
58739;BME280;44512;53.046;18.604;2024-01-30T14:36:58;102960.72;;;7.13;57.17
58739;BME280;44512;53.046;18.604;2024-01-30T14:47:27;102962.20;;;7.17;57.23
58739;BME280;44512;53.046;18.604;2024-01-30T14:57:55;102966.73;;;7.17;57.25
58739;BME280;44512;53.046;18.604;2024-01-30T15:08:24;102957.30;;;7.11;57.45
58739;BME280;44512;53.046;18.604;2024-01-30T15:18:52;102961.48;;;7.04;57.78
58739;BME280;44512;53.046;18.604;2024-01-30T15:29:20;102962.20;;;6.95;58.00
58739;BME280;44512;53.046;18.604;2024-01-30T15:39:49;102945.07;;;6.85;58.28
58739;BME280;44512;53.046;18.604;2024-01-30T15:50:17;102961.95;;;6.75;58.59
58739;BME280;44512;53.046;18.604;2024-01-30T16:00:46;102953.73;;;6.66;58.94
58739;BME280;44512;53.046;18.604;2024-01-30T16:11:16;102953.49;;;6.58;59.27
58739;BME280;44512;53.046;18.604;2024-01-30T16:21:43;102938.91;;;6.49;59.70
58739;BME280;44512;53.046;18.604;2024-01-30T16:32:12;102939.41;;;6.43;59.93
58739;BME280;44512;53.046;18.604;2024-01-30T16:42:40;102932.30;;;6.31;60.16
58739;BME280;44512;53.046;18.604;2024-01-30T16:53:08;102926.91;;;6.31;60.14
58739;BME280;44512;53.046;18.604;2024-01-30T17:03:37;102925.52;;;6.25;59.98
58739;BME280;44512;53.046;18.604;2024-01-30T17:14:05;102933.50;;;6.26;59.55
58739;BME280;44512;53.046;18.604;2024-01-30T17:24:34;102928.13;;;6.26;59.06
58739;BME280;44512;53.046;18.604;2024-01-30T17:35:03;102929.60;;;6.31;58.69
58739;BME280;44512;53.046;18.604;2024-01-30T17:45:31;102925.43;;;6.26;58.52
58739;BME280;44512;53.046;18.604;2024-01-30T17:55:59;102913.91;;;6.24;58.35
58739;BME280;44512;53.046;18.604;2024-01-30T18:06:27;102919.77;;;6.18;58.29
58739;BME280;44512;53.046;18.604;2024-01-30T18:16:56;102908.51;;;6.13;58.26
58739;BME280;44512;53.046;18.604;2024-01-30T18:27:24;102900.93;;;6.07;58.24
58739;BME280;44512;53.046;18.604;2024-01-30T18:37:53;102883.31;;;6.03;58.21
58739;BME280;44512;53.046;18.604;2024-01-30T18:48:22;102880.75;;;6.02;58.22
58739;BME280;44512;53.046;18.604;2024-01-30T18:58:50;102878.41;;;5.97;58.32
58739;BME280;44512;53.046;18.604;2024-01-30T19:09:20;102861.96;;;5.89;58.40
58739;BME280;44512;53.046;18.604;2024-01-30T19:19:47;102860.39;;;5.86;58.43
58739;BME280;44512;53.046;18.604;2024-01-30T19:30:15;102854.63;;;5.80;58.48
58739;BME280;44512;53.046;18.604;2024-01-30T19:40:44;102849.26;;;5.80;58.45
58739;BME280;44512;53.046;18.604;2024-01-30T19:51:12;102850.11;;;5.80;58.45
58739;BME280;44512;53.046;18.604;2024-01-30T20:01:40;102859.75;;;5.83;58.33
58739;BME280;44512;53.046;18.604;2024-01-30T20:12:09;102858.05;;;5.82;58.32
58739;BME280;44512;53.046;18.604;2024-01-30T20:22:37;102856.18;;;5.71;58.44
58739;BME280;44512;53.046;18.604;2024-01-30T20:33:07;102850.65;;;5.61;58.62
58739;BME280;44512;53.046;18.604;2024-01-30T20:43:34;102856.02;;;5.61;58.69
58739;BME280;44512;53.046;18.604;2024-01-30T20:54:03;102860.02;;;5.56;58.85
58739;BME280;44512;53.046;18.604;2024-01-30T21:04:32;102847.29;;;5.46;59.14
58739;BME280;44512;53.046;18.604;2024-01-30T21:15:00;102835.68;;;5.46;59.21
58739;BME280;44512;53.046;18.604;2024-01-30T21:25:28;102837.30;;;5.48;59.21
58739;BME280;44512;53.046;18.604;2024-01-30T21:35:57;102825.96;;;5.56;58.99
58739;BME280;44512;53.046;18.604;2024-01-30T21:46:26;102822.80;;;5.62;58.87
58739;BME280;44512;53.046;18.604;2024-01-30T21:56:53;102813.04;;;5.61;58.84
58739;BME280;44512;53.046;18.604;2024-01-30T22:07:22;102814.65;;;5.64;58.72
58739;BME280;44512;53.046;18.604;2024-01-30T22:17:50;102817.93;;;5.67;58.59
58739;BME280;44512;53.046;18.604;2024-01-30T22:28:19;102820.53;;;5.69;58.44
58739;BME280;44512;53.046;18.604;2024-01-30T22:38:48;102827.48;;;5.71;58.38
58739;BME280;44512;53.046;18.604;2024-01-30T22:49:16;102813.20;;;5.71;58.37
58739;BME280;44512;53.046;18.604;2024-01-30T22:59:44;102833.84;;;5.70;58.65
58739;BME280;44512;53.046;18.604;2024-01-30T23:10:13;102831.99;;;5.71;58.52
58739;BME280;44512;53.046;18.604;2024-01-30T23:20:42;102811.83;;;5.65;58.67
58739;BME280;44512;53.046;18.604;2024-01-30T23:31:10;102796.57;;;5.66;58.78
58739;BME280;44512;53.046;18.604;2024-01-30T23:41:39;102809.87;;;5.67;58.88
58739;BME280;44512;53.046;18.604;2024-01-30T23:52:07;102811.70;;;5.67;58.94
